»·PEaware :: N739SC KSBP-KSMX

N739SC :: KSBP-KSMX

FLIGHT INFORMATION

Flight Status: Arrived
Operator: Privately registered:
United States
More flights under this callsign
Pilot: Phillip T. (36944)
Aircraft: CESSNA 172 SKYHAWK
(C172)
More flights by this aircraft type
Origin: KSBP San Luis Co Regl
United States
Destination: KSMX Santa Maria Pub/Capt Hancock
United States
More flights between these airports :: More routes between these airports
Route: -
File this flight plan on PilotEdge
Remarks:
Altitude:
(Current/Filed)
3,500ft
Speed:
(Current/Filed)
124kts
Departed: 02-Nov-21 09:05 AM
Arrived: 02-Nov-21 09:20 AM
Distance/Time
Traveled:
22nm/0:15
Distance/Time
To Go:
Arrived

Flight Plot

Page will automatically refresh every two minutes.

Flight plan parsing failed; only flown route is shown


Map Options




Map Legend


Flown Route
Filed Route
Departure Airport
Arrival Airport
Navaid (VOR, NDB)
Fix

Horizontal Profiles

Position Reports

Time Latitude Longitude Heading Altitude Ground
Speed
02-Nov-21 08:25 35.236233 -120.634328 23 207ft 0kts
02-Nov-21 08:26 35.235587 -120.634311 208 209ft 4kts
02-Nov-21 08:27 35.234613 -120.633819 128 213ft 0kts
02-Nov-21 08:28 35.234613 -120.633819 128 213ft 0kts
02-Nov-21 08:29 35.234613 -120.633819 128 213ft 0kts
02-Nov-21 08:30 35.234613 -120.633819 128 213ft 0kts
02-Nov-21 08:31 35.234613 -120.633819 128 213ft 0kts
02-Nov-21 08:32 35.234613 -120.633819 128 213ft 0kts
02-Nov-21 08:33 35.234613 -120.633819 128 213ft 0kts
02-Nov-21 08:34 35.234613 -120.633819 128 213ft 0kts
02-Nov-21 08:34 35.234613 -120.633819 128 213ft 0kts
02-Nov-21 08:36 35.234613 -120.633819 128 213ft 0kts
02-Nov-21 08:37 35.234613 -120.633819 128 213ft 0kts
02-Nov-21 08:38 35.234613 -120.633819 128 213ft 0kts
02-Nov-21 08:38 35.234613 -120.633819 128 213ft 0kts
02-Nov-21 08:39 35.234613 -120.633819 128 213ft 0kts
02-Nov-21 08:41 35.234613 -120.633819 128 213ft 0kts
02-Nov-21 08:42 35.234613 -120.633819 128 213ft 0kts
02-Nov-21 08:42 35.234613 -120.633819 128 213ft 0kts
02-Nov-21 08:43 35.234613 -120.633819 128 213ft 0kts
02-Nov-21 08:44 35.234613 -120.633819 128 213ft 0kts
02-Nov-21 08:46 35.234613 -120.633819 128 213ft 0kts
02-Nov-21 08:46 35.234613 -120.633819 128 213ft 0kts
02-Nov-21 08:47 35.234613 -120.633819 128 213ft 0kts
02-Nov-21 08:48 35.234613 -120.633819 128 213ft 0kts
02-Nov-21 08:49 35.234613 -120.633819 128 213ft 0kts
02-Nov-21 08:50 35.234613 -120.633819 128 213ft 0kts
02-Nov-21 08:51 35.234613 -120.633819 128 213ft 0kts
02-Nov-21 08:52 35.234613 -120.633819 128 213ft 0kts
02-Nov-21 08:53 35.234613 -120.633819 128 213ft 0kts
02-Nov-21 08:54 35.234613 -120.633819 128 213ft 0kts
02-Nov-21 08:55 35.234613 -120.633819 128 213ft 0kts
02-Nov-21 08:56 35.234613 -120.633819 128 213ft 0kts
02-Nov-21 08:57 35.234613 -120.633819 128 213ft 0kts
02-Nov-21 08:58 35.234613 -120.633819 128 213ft 0kts
02-Nov-21 08:59 35.234613 -120.633819 128 213ft 0kts
02-Nov-21 09:00 35.234613 -120.633819 128 213ft 0kts
02-Nov-21 09:01 35.234194 -120.633573 130 214ft 13kts
02-Nov-21 09:02 35.233235 -120.632424 210 219ft 0kts
02-Nov-21 09:03 35.232969 -120.632662 224 218ft 11kts
02-Nov-21 09:04 35.241836 -120.649391 301 649ft 77kts
02-Nov-21 09:05 35.235685 -120.659798 154 1407ft 82kts
02-Nov-21 09:06 35.214595 -120.648516 154 2186ft 83kts
02-Nov-21 09:07 35.192985 -120.637076 154 2911ft 85kts
02-Nov-21 09:08 35.170436 -120.625256 154 3479ft 100kts
02-Nov-21 09:09 35.139619 -120.608742 155 3494ft 130kts
02-Nov-21 09:10 35.105825 -120.590669 155 3492ft 133kts
02-Nov-21 09:11 35.071796 -120.572558 155 3491ft 133kts
02-Nov-21 09:12 35.037809 -120.554516 155 3482ft 129kts
02-Nov-21 09:13 35.006129 -120.537764 155 3473ft 121kts
02-Nov-21 09:14 34.972944 -120.516794 143 2682ft 142kts
02-Nov-21 09:15 34.944126 -120.483731 130 1705ft 143kts
02-Nov-21 09:16 34.919659 -120.449754 130 1257ft 107kts
02-Nov-21 09:17 34.901879 -120.425231 132 1273ft 83kts
02-Nov-21 09:18 34.888821 -120.435520 266 876ft 83kts
02-Nov-21 09:19 34.897196 -120.450298 358 249ft 14kts
02-Nov-21 09:20 34.898623 -120.449039 122 249ft 19kts
02-Nov-21 09:21 34.898376 -120.447682 78 250ft 0kts
02-Nov-21 09:22 34.898376 -120.447682 78 250ft 0kts
02-Nov-21 09:23 34.898376 -120.447682 78 250ft 0kts
02-Nov-21 09:24 34.898376 -120.447682 78 250ft 0kts
02-Nov-21 09:25 34.898376 -120.447682 78 250ft 0kts
02-Nov-21 09:26 34.898376 -120.447682 78 250ft 0kts
02-Nov-21 09:27 34.898376 -120.447682 78 250ft 0kts
02-Nov-21 09:28 34.898376 -120.447682 78 250ft 0kts
02-Nov-21 09:29 34.898376 -120.447682 78 250ft 0kts
02-Nov-21 09:30 34.898376 -120.447682 78 250ft 0kts
02-Nov-21 09:31 34.898376 -120.447682 78 250ft 0kts
02-Nov-21 09:32 34.898376 -120.447682 78 250ft 0kts
02-Nov-21 09:33 34.898376 -120.447682 78 250ft 0kts

Navigation Log

Ident Type
Flight plan parsing failed, navigation log unavailable